• Join FlightAware (Why Join?)
  • Login
  • US Flag 
08:31AM EDT


 

Airport Tracker/Info


-or-


 

Live Flight TrackerFlight Track Log ✈ AAL1012 ✈ 18-Apr-2013 ✈ KMIA - KPHL

Flight Track Log - Related Links

Times and Time Zones

All times are in EDT time to prevent confusion due to time zone crossing. See the AAL1012 flight status page for this flight to view local times or setup timezone preferences in your user account.

Time Position Orientation Groundspeed Altitude Reporting Facility
EDT Latitude Longitude Course Direction KTS MPH feet Rate Location/Type
03:32PM 25.8030 -80.2620 90° East 166 191 1,100  Level FlightAware
03:32PM 25.8050 -80.2480 81° East 169 194 1,900 1,860 Climbing FlightAware
03:33PM 25.8080 -80.2210 83° East 206 237 2,500 1,260 Climbing FlightAware
03:33PM 25.8120 -80.1920 81° East 244 281 3,100 1,920 Climbing FlightAware
03:33PM 25.8150 -80.1710 81° East 257 296 3,800 3,000 Climbing FlightAware
03:34PM 25.8230 -80.1530 64° Northeast 261 300 4,600 3,060 Climbing FlightAware
03:34PM 25.8410 -80.1160 62° Northeast 269 310 6,100 2,820 Climbing FlightAware
03:35PM 25.8540 -80.0870 64° Northeast 275 316 7,200 2,820 Climbing FlightAware
03:35PM 25.8730 -80.0470 62° Northeast 283 326 8,700 2,700 Climbing FlightAware
03:36PM 25.8900 -80.0150 59° Northeast 289 333 9,700 1,860 Climbing FlightAware
03:36PM 25.9190 -79.9540 62° Northeast 328 377 10,900 1,680 Climbing FlightAware
03:37PM 25.9500 -79.8890 62° Northeast 356 410 12,100 2,040 Climbing FlightAware
03:38PM 25.9860 -79.8140 62° Northeast 377 434 13,800 2,160 Climbing FlightAware
03:38PM 26.0210 -79.7460 60° Northeast 395 455 15,200 2,220 Climbing FlightAware
03:39PM 26.0700 -79.6870 47° Northeast 403 464 16,800 2,580 Climbing FlightAware
03:40PM 26.1430 -79.6380 31° Northeast 403 464 18,900 2,520 Climbing FlightAware
03:40PM 26.2090 -79.5950 30° Northeast 416 479 20,400 2,100 Climbing FlightAware
03:41PM 26.2820 -79.5470 31° Northeast 426 490 21,900 2,100 Climbing FlightAware
03:42PM 26.3510 -79.5010 31° Northeast 432 497 23,400 1,920 Climbing FlightAware
03:43PM 26.4470 -79.4370 31° Northeast 445 512 25,000 1,680 Climbing FlightAware
03:44PM 26.5300 -79.3830 30° Northeast 451 519 26,200 -240 Climbing FlightAware
03:46PM 26.7381 -79.3272 13° North  Level Estimated
03:47PM 26.8449 -79.2986 13° North  Level Estimated
03:48PM 26.9516 -79.2698 13° North  Level Estimated
03:49PM 27.0583 -79.2410 14° North  Level Estimated
03:50PM 27.1650 -79.2122 14° North  Level Estimated
03:51PM 27.2717 -79.1833 14° North  Level Estimated
03:52PM 27.3784 -79.1543 14° North  Level Estimated
03:53PM 27.4851 -79.1253 14° North  Level Estimated
03:54PM 27.5918 -79.0963 14° North  Level Estimated
03:55PM 27.6985 -79.0671 14° North  Level Estimated
03:56PM 27.8052 -79.0380 14° North  Level Estimated
03:57PM 27.9118 -79.0087 14° North  Level Estimated
03:58PM 28.0185 -78.9794 14° North  Level Estimated
03:59PM 28.1252 -78.9501 14° North  Level Estimated
04:00PM 28.2318 -78.9207 14° North  Level Estimated
04:01PM 28.3384 -78.8912 14° North  Level Estimated
04:02PM 28.4451 -78.8617 14° North  Level Estimated
04:03PM 28.5581 -78.8303 14° North  Level Estimated
04:04PM 28.6711 -78.7989 14° North  Level Estimated
04:05PM 28.7840 -78.7674 14° North  Level Estimated
04:06PM 28.8970 -78.7358 14° North  Level Estimated
04:07PM 29.0100 -78.7042 14° North  Level Estimated
04:08PM 29.1230 -78.6725 14° North  Level Estimated
04:09PM 29.2359 -78.6407 14° North  Level Estimated
04:10PM 29.3489 -78.6089 14° North  Level Estimated
04:11PM 29.4618 -78.5770 14° North  Level Estimated
04:12PM 29.5747 -78.5450 14° North  Level Estimated
04:13PM 29.6877 -78.5129 14° North  Level Estimated
04:14PM 29.8006 -78.4808 14° North  Level Estimated
04:15PM 29.9135 -78.4486 14° North  Level Estimated
04:16PM 30.0264 -78.4163 14° North  Level Estimated
04:17PM 30.1393 -78.3840 14° North  Level Estimated
04:18PM 30.2521 -78.3516 14° North  Level Estimated
04:19PM 30.3650 -78.3191 14° North  Level Estimated
04:20PM 30.4779 -78.2865 14° North  Level Estimated
04:21PM 30.5907 -78.2539 14° North  Level Estimated
04:22PM 30.7036 -78.2212 14° North  Level Estimated
04:23PM 30.8164 -78.1884 14° North  Level Estimated
04:24PM 30.9293 -78.1555 14° North  Level Estimated
04:25PM 31.0421 -78.1225 14° North  Level Estimated
04:26PM 31.1549 -78.0895 14° North  Level Estimated
04:27PM 31.2677 -78.0564 14° North  Level Estimated
04:28PM 31.3805 -78.0232 14° North  Level Estimated
04:29PM 31.4933 -77.9899 14° North  Level Estimated
04:30PM 31.6061 -77.9566 14° North  Level Estimated
04:31PM 31.7189 -77.9232 14° North  Level Estimated
04:32PM 31.8316 -77.8896 14° North  Level Estimated
04:33PM 31.9444 -77.8561 14° North  Level Estimated
04:34PM 32.0572 -77.8224 14° North  Level Estimated
04:35PM 32.1699 -77.7886 14° North  Level Estimated
04:36PM 32.2826 -77.7548 14° North  Level Estimated
04:37PM 32.3953 -77.7209 14° North  Level Estimated
04:38PM 32.5080 -77.6869 14° North  Level Estimated
04:39PM 32.6208 -77.6527 14° North  Level Estimated
04:40PM 32.7334 -77.6186 14° North  Level Estimated
04:41PM 32.8461 -77.5843 14° North  Level Estimated
04:42PM 32.9588 -77.5499 14° North  Level Estimated
04:43PM 33.0715 -77.5155 14° North  Level Estimated
04:44PM 33.1841 -77.4810 14° North  Level Estimated
04:45PM 33.2968 -77.4464 14° North  Level Estimated
04:46PM 33.4094 -77.4117 14° North  Level Estimated
04:47PM 33.5220 -77.3768 14° North  Level Estimated
04:48PM 33.6347 -77.3420 14° North  Level Estimated
04:49PM 33.7473 -77.3070 14° North  Level Estimated
04:50PM 33.8599 -77.2719 15° North  Level Estimated
04:51PM 33.9725 -77.2367 15° North  Level Estimated
04:52PM 34.0850 -77.2015 15° North  Level Estimated
04:53PM 34.1985 -77.1659 15° North  Level Estimated
04:54PM 34.3119 -77.1301 15° North  Level Estimated
04:55PM 34.4253 -77.0943 15° North  Level Estimated
04:56PM 34.5386 -77.0584 15° North  Level Estimated
04:57PM 34.6520 -77.0224 15° North  Level Estimated
04:58PM 34.7654 -76.9863 15° North  Level Estimated
04:59PM 34.8787 -76.9501 15° North  Level Estimated
05:00PM 34.9921 -76.9138 15° North  Level Estimated
05:01PM 35.1054 -76.8774 15° North  Level Estimated
05:02PM 35.2187 -76.8409 15° North  Level Estimated
05:03PM 35.3320 -76.8043 15° North  Level Estimated
05:04PM 35.4453 -76.7675 15° North  Level Estimated
05:05PM 35.5586 -76.7307 15° North  Level Estimated
05:06PM 35.6719 -76.6938 15° North  Level Estimated
05:07PM 35.7851 -76.6568 15° North  Level Estimated
05:08PM 35.8984 -76.6197 15° North  Level Estimated
05:09PM 36.0116 -76.5824 15° North  Level Estimated
05:10PM 36.1249 -76.5451 15° North  Level Estimated
05:11PM 36.2381 -76.5076 15° North  Level Estimated
05:12PM 36.3513 -76.4701 15° North  Level Estimated
05:13PM 36.4662 -76.4318 15° North  Level Estimated
05:14PM 36.5811 -76.3934 15° North  Level Estimated
05:15PM 36.6960 -76.3550 15° North  Level Estimated
05:16PM 36.8109 -76.3164 15° North  Level Estimated
05:17PM 36.9258 -76.2777 15° North  Level Estimated
05:18PM 37.0406 -76.2389 15° North  Level Estimated
05:19PM 37.1555 -76.1999 15° North  Level Estimated
05:20PM 37.2703 -76.1609 15° North  Level Estimated
05:21PM 37.3851 -76.1217 15° North  Level Estimated
05:22PM 37.4999 -76.0824 15° North  Level Estimated
05:23PM 37.6147 -76.0430 15° North  Level Estimated
05:24PM 37.7295 -76.0034 15° North  Level Estimated
05:25PM 37.8443 -75.9638 15° North  Level Estimated
05:26PM 37.9590 -75.9240 15° North  Level Estimated
05:27PM 38.0738 -75.8841 15° North  Level Estimated
05:28PM 38.1885 -75.8440 15° North  Level Estimated
05:29PM 38.3032 -75.8039 15° North  Level Estimated
05:30PM 38.4179 -75.7636 15° North  Level Estimated
05:31PM 38.5326 -75.7232 15° North  Level Estimated
05:32PM 38.6473 -75.6826 15° North  Level Estimated
05:33PM 38.7620 -75.6419 15° North  Level Estimated
05:34PM 38.8766 -75.6011 15° North  Level Estimated
05:35PM 38.9912 -75.5602 16° North  Level Estimated
05:36PM 39.1059 -75.5191 16° North  Level Estimated
05:37PM 39.2205 -75.4779 16° North  Level Estimated
05:38PM 39.3350 -75.4366 16° North  Level Estimated
05:39PM 39.4496 -75.3951 16° North  Level Estimated
05:40PM 39.5642 -75.3535 16° North  Level Estimated
05:41PM 39.6787 -75.3117 16° North  Level Estimated
05:42PM 39.7932 -75.2699 16° North  Level Estimated
05:43PM 39.8722 -75.2409 16° North  Level Estimated
05:44PM 39.8722 -75.2409 101° East  Level Estimated
05:45PM 39.8722 -75.2409 101° East  Level Estimated
05:46PM 39.8722 -75.2409 101° East  Level Estimated
05:47PM 39.8722 -75.2409 101° East  Level Estimated
05:48PM 39.8722 -75.2409 101° East  Level Estimated
05:49PM 39.8722 -75.2409 101° East  Level Estimated
05:50PM 39.8722 -75.2409 101° East  Level Estimated
05:51PM 39.8722 -75.2409 101° East  Level Estimated
05:51PM 39.8453 -75.3489 North 164 189 1,200  Level FAA TRACON SMA TRACON (SMA)
05:51PM 39.8469 -75.3450 101° East 151 174 900 -1,680 Descending FlightAware ADS-B
05:52PM 39.8496 -75.3314 75° East 148 170 700 300 Descending FlightAware ADS-B
05:52PM 39.8489 -75.3336 73° East 157 181 1,000 -720 Climbing FAA TRACON SMA TRACON (SMA)
05:52PM 39.8526 -75.3158 76° East 145 167 500 -900 Descending FlightAware ADS-B
05:52PM 39.8528 -75.3142 75° East 149 171 700 -960 Climbing FAA TRACON SMA TRACON (SMA)
05:52PM 39.8559 -75.2996 75° East 146 168 200 -900 Descending FlightAware ADS-B
05:52PM 39.8556 -75.3003 75° East 147 169 400  Climbing FAA TRACON SMA TRACON (SMA)
05:53PM 39.8592 -75.2839 74° East 141 162 200 -420 Descending FAA TRACON SMA TRACON (SMA)
05:53PM 39.8600 -75.2790 75° East 142 163 200 -300 Level FlightAware
05:53PM 39.8597 -75.2797 80° East 145 167 100 -780 Descending FAA TRACON SMA TRACON (SMA)
05:55PM 39.8667 -75.2333 North  Level FlightAware Approximate
05:55PM 39.8667 -75.2333 North  Level FlightAware Approximate
05:56PM 39.8722 -75.2409 North  Level Estimated
06:02PM 39.8722 -75.2409 North  Level Estimated
06:03PM 39.8722 -75.2409 North  Level Estimated
06:04PM 39.8722 -75.2409 North  Level Estimated
06:05PM 39.8722 -75.2409 North  Level Estimated
06:06PM 39.8722 -75.2409 North  Level Estimated
06:07PM 39.8722 -75.2409 North  Level Estimated
06:08PM 39.8722 -75.2409 North  Level Estimated
06:09PM 39.8722 -75.2409 North  Level Estimated